Terminal Aerodrome Forecast
Issued by NWS Detroit/Pontiac, MI

Home | Current Version | Previous Version | Text Only | Print | Product List | Glossary On
Versions: 1 2 3 4 5 6 7 8 9 10 11 12 13 14 15 16 17 18 19
979
FTUS43 KDTX 272323
TAFFNT
TAF
KFNT 272323Z 2800/2824 14004KT P6SM BKN060
     FM280200 VRB03KT P6SM BKN200
     FM281600 14005KT P6SM BKN045 BKN150 PROB30 2822/2824 3SM TSRA
      OVC025CB=

USA.gov is the U.S. government's official web portal to all federal, state and local government web resources and services.